sensor_id;sensor_type;location;lat;lon;timestamp;temperature;humidity
40600;DHT22;26309;50.924;4.754;2024-03-08T00:00:34;5.30;99.90
40600;DHT22;26309;50.924;4.754;2024-03-08T00:03:01;5.40;99.90
40600;DHT22;26309;50.924;4.754;2024-03-08T00:05:27;5.50;99.90
40600;DHT22;26309;50.924;4.754;2024-03-08T00:07:53;5.40;99.90
40600;DHT22;26309;50.924;4.754;2024-03-08T00:10:19;5.40;99.90
40600;DHT22;26309;50.924;4.754;2024-03-08T00:12:46;5.40;99.90
40600;DHT22;26309;50.924;4.754;2024-03-08T00:15:15;5.50;99.90
40600;DHT22;26309;50.924;4.754;2024-03-08T00:17:42;5.50;99.90
40600;DHT22;26309;50.924;4.754;2024-03-08T00:20:08;5.50;99.90
40600;DHT22;26309;50.924;4.754;2024-03-08T00:22:38;5.50;99.90
40600;DHT22;26309;50.924;4.754;2024-03-08T00:25:05;5.40;99.90
40600;DHT22;26309;50.924;4.754;2024-03-08T00:27:31;5.50;99.90
40600;DHT22;26309;50.924;4.754;2024-03-08T00:29:58;5.60;99.90
40600;DHT22;26309;50.924;4.754;2024-03-08T00:32:24;5.50;99.90
40600;DHT22;26309;50.924;4.754;2024-03-08T00:34:51;5.40;99.90
40600;DHT22;26309;50.924;4.754;2024-03-08T00:37:20;5.40;99.90
40600;DHT22;26309;50.924;4.754;2024-03-08T00:39:48;5.30;99.90
40600;DHT22;26309;50.924;4.754;2024-03-08T00:42:15;5.30;99.90
40600;DHT22;26309;50.924;4.754;2024-03-08T00:44:41;5.40;99.90
40600;DHT22;26309;50.924;4.754;2024-03-08T00:47:07;5.40;99.90
40600;DHT22;26309;50.924;4.754;2024-03-08T00:49:33;5.40;99.90
40600;DHT22;26309;50.924;4.754;2024-03-08T00:51:59;5.40;99.90
40600;DHT22;26309;50.924;4.754;2024-03-08T00:54:25;5.40;99.90
40600;DHT22;26309;50.924;4.754;2024-03-08T00:56:51;5.40;99.90
40600;DHT22;26309;50.924;4.754;2024-03-08T00:59:16;5.40;99.90
40600;DHT22;26309;50.924;4.754;2024-03-08T01:01:42;5.30;99.90
40600;DHT22;26309;50.924;4.754;2024-03-08T01:04:10;5.30;99.90
40600;DHT22;26309;50.924;4.754;2024-03-08T01:06:36;5.30;99.90
40600;DHT22;26309;50.924;4.754;2024-03-08T01:09:02;5.40;99.90
40600;DHT22;26309;50.924;4.754;2024-03-08T01:11:28;5.40;99.90
40600;DHT22;26309;50.924;4.754;2024-03-08T01:13:54;5.30;99.90
40600;DHT22;26309;50.924;4.754;2024-03-08T01:16:20;5.20;99.90
40600;DHT22;26309;50.924;4.754;2024-03-08T01:18:47;5.30;99.90
40600;DHT22;26309;50.924;4.754;2024-03-08T01:21:13;5.20;99.90
40600;DHT22;26309;50.924;4.754;2024-03-08T01:23:39;5.20;99.90
40600;DHT22;26309;50.924;4.754;2024-03-08T01:26:05;5.20;99.90
40600;DHT22;26309;50.924;4.754;2024-03-08T01:28:32;5.10;99.90
40600;DHT22;26309;50.924;4.754;2024-03-08T01:30:59;5.20;99.90
40600;DHT22;26309;50.924;4.754;2024-03-08T01:33:26;5.20;99.90
40600;DHT22;26309;50.924;4.754;2024-03-08T01:35:53;5.30;99.90
40600;DHT22;26309;50.924;4.754;2024-03-08T01:38:19;5.20;99.90
40600;DHT22;26309;50.924;4.754;2024-03-08T01:40:48;5.10;99.90
40600;DHT22;26309;50.924;4.754;2024-03-08T01:43:22;5.10;99.90
40600;DHT22;26309;50.924;4.754;2024-03-08T01:45:48;5.00;99.90
40600;DHT22;26309;50.924;4.754;2024-03-08T01:48:15;5.00;99.90
40600;DHT22;26309;50.924;4.754;2024-03-08T01:50:43;5.00;99.90
40600;DHT22;26309;50.924;4.754;2024-03-08T01:53:10;5.00;99.90
40600;DHT22;26309;50.924;4.754;2024-03-08T01:55:38;4.90;99.90
40600;DHT22;26309;50.924;4.754;2024-03-08T01:58:09;4.90;99.90
40600;DHT22;26309;50.924;4.754;2024-03-08T02:00:38;4.90;99.90
40600;DHT22;26309;50.924;4.754;2024-03-08T02:03:06;4.90;99.90
40600;DHT22;26309;50.924;4.754;2024-03-08T02:05:32;4.90;99.90
40600;DHT22;26309;50.924;4.754;2024-03-08T02:07:58;4.90;99.90
40600;DHT22;26309;50.924;4.754;2024-03-08T02:10:24;4.90;99.90
40600;DHT22;26309;50.924;4.754;2024-03-08T02:12:50;4.90;99.90
40600;DHT22;26309;50.924;4.754;2024-03-08T02:15:16;4.90;99.90
40600;DHT22;26309;50.924;4.754;2024-03-08T02:17:42;4.90;99.90
40600;DHT22;26309;50.924;4.754;2024-03-08T02:20:09;4.90;99.90
40600;DHT22;26309;50.924;4.754;2024-03-08T02:22:36;4.90;99.90
40600;DHT22;26309;50.924;4.754;2024-03-08T02:25:02;4.70;99.90
40600;DHT22;26309;50.924;4.754;2024-03-08T02:27:29;4.70;99.90
40600;DHT22;26309;50.924;4.754;2024-03-08T02:29:56;4.70;99.90
40600;DHT22;26309;50.924;4.754;2024-03-08T02:32:26;4.70;99.90
40600;DHT22;26309;50.924;4.754;2024-03-08T02:34:56;4.70;99.90
40600;DHT22;26309;50.924;4.754;2024-03-08T02:37:25;4.70;99.90
40600;DHT22;26309;50.924;4.754;2024-03-08T02:39:52;4.60;99.90
40600;DHT22;26309;50.924;4.754;2024-03-08T02:42:17;4.70;99.90
40600;DHT22;26309;50.924;4.754;2024-03-08T02:44:43;4.80;99.90
40600;DHT22;26309;50.924;4.754;2024-03-08T02:47:10;4.80;99.90
40600;DHT22;26309;50.924;4.754;2024-03-08T02:49:36;4.70;99.90
40600;DHT22;26309;50.924;4.754;2024-03-08T02:52:04;4.70;99.90
40600;DHT22;26309;50.924;4.754;2024-03-08T02:54:30;4.60;99.90
40600;DHT22;26309;50.924;4.754;2024-03-08T02:56:56;4.60;99.90
40600;DHT22;26309;50.924;4.754;2024-03-08T02:59:22;4.60;99.90
40600;DHT22;26309;50.924;4.754;2024-03-08T03:01:49;4.60;99.90
40600;DHT22;26309;50.924;4.754;2024-03-08T03:04:15;4.60;99.90
40600;DHT22;26309;50.924;4.754;2024-03-08T03:06:41;4.60;99.90
40600;DHT22;26309;50.924;4.754;2024-03-08T03:09:07;4.60;99.90
40600;DHT22;26309;50.924;4.754;2024-03-08T03:11:33;4.50;99.90
40600;DHT22;26309;50.924;4.754;2024-03-08T03:13:59;4.50;99.90
40600;DHT22;26309;50.924;4.754;2024-03-08T03:16:25;4.50;99.90
40600;DHT22;26309;50.924;4.754;2024-03-08T03:18:51;4.50;99.90
40600;DHT22;26309;50.924;4.754;2024-03-08T03:21:17;4.40;99.90
40600;DHT22;26309;50.924;4.754;2024-03-08T03:23:42;4.40;99.90
40600;DHT22;26309;50.924;4.754;2024-03-08T03:26:09;4.50;99.90
40600;DHT22;26309;50.924;4.754;2024-03-08T03:28:38;4.50;99.90
40600;DHT22;26309;50.924;4.754;2024-03-08T03:31:08;4.50;99.90
40600;DHT22;26309;50.924;4.754;2024-03-08T03:33:40;4.40;99.90
40600;DHT22;26309;50.924;4.754;2024-03-08T03:36:06;4.50;99.90
40600;DHT22;26309;50.924;4.754;2024-03-08T03:38:36;4.30;99.90
40600;DHT22;26309;50.924;4.754;2024-03-08T03:41:02;4.30;99.90
40600;DHT22;26309;50.924;4.754;2024-03-08T03:43:36;4.20;99.90
40600;DHT22;26309;50.924;4.754;2024-03-08T03:46:07;4.30;99.90
40600;DHT22;26309;50.924;4.754;2024-03-08T03:48:36;4.30;99.90
40600;DHT22;26309;50.924;4.754;2024-03-08T03:51:02;4.30;99.90
40600;DHT22;26309;50.924;4.754;2024-03-08T03:53:28;4.30;99.90
40600;DHT22;26309;50.924;4.754;2024-03-08T03:55:53;4.20;99.90
40600;DHT22;26309;50.924;4.754;2024-03-08T03:58:19;4.20;99.90
40600;DHT22;26309;50.924;4.754;2024-03-08T04:00:48;4.20;99.90
40600;DHT22;26309;50.924;4.754;2024-03-08T04:03:14;4.20;99.90
40600;DHT22;26309;50.924;4.754;2024-03-08T04:05:42;4.20;99.90
40600;DHT22;26309;50.924;4.754;2024-03-08T04:08:08;4.20;99.90
40600;DHT22;26309;50.924;4.754;2024-03-08T04:10:34;4.20;99.90
40600;DHT22;26309;50.924;4.754;2024-03-08T04:13:00;4.20;99.90
40600;DHT22;26309;50.924;4.754;2024-03-08T04:15:26;4.20;99.90
40600;DHT22;26309;50.924;4.754;2024-03-08T04:17:51;4.20;99.90
40600;DHT22;26309;50.924;4.754;2024-03-08T04:20:18;4.20;99.90
40600;DHT22;26309;50.924;4.754;2024-03-08T04:22:43;4.10;99.90
40600;DHT22;26309;50.924;4.754;2024-03-08T04:25:10;4.10;99.90
40600;DHT22;26309;50.924;4.754;2024-03-08T04:27:36;4.00;99.90
40600;DHT22;26309;50.924;4.754;2024-03-08T04:30:03;4.00;99.90
40600;DHT22;26309;50.924;4.754;2024-03-08T04:32:29;4.00;99.90
40600;DHT22;26309;50.924;4.754;2024-03-08T04:34:55;4.10;99.90
40600;DHT22;26309;50.924;4.754;2024-03-08T04:37:21;4.00;99.90
40600;DHT22;26309;50.924;4.754;2024-03-08T04:39:48;4.10;99.90
40600;DHT22;26309;50.924;4.754;2024-03-08T04:42:15;4.00;99.90
40600;DHT22;26309;50.924;4.754;2024-03-08T04:44:41;4.00;99.90
40600;DHT22;26309;50.924;4.754;2024-03-08T04:47:07;4.00;99.90
40600;DHT22;26309;50.924;4.754;2024-03-08T04:49:33;4.00;99.90
40600;DHT22;26309;50.924;4.754;2024-03-08T04:52:02;3.90;99.90
40600;DHT22;26309;50.924;4.754;2024-03-08T04:54:29;3.90;99.90
40600;DHT22;26309;50.924;4.754;2024-03-08T04:56:55;3.90;99.90
40600;DHT22;26309;50.924;4.754;2024-03-08T04:59:21;3.90;99.90
40600;DHT22;26309;50.924;4.754;2024-03-08T05:01:47;3.90;99.90
40600;DHT22;26309;50.924;4.754;2024-03-08T05:04:13;3.90;99.90
40600;DHT22;26309;50.924;4.754;2024-03-08T05:06:40;3.90;99.90
40600;DHT22;26309;50.924;4.754;2024-03-08T05:09:07;3.90;99.90
40600;DHT22;26309;50.924;4.754;2024-03-08T05:11:43;3.80;99.90
40600;DHT22;26309;50.924;4.754;2024-03-08T05:14:10;3.90;99.90
40600;DHT22;26309;50.924;4.754;2024-03-08T05:16:36;3.90;99.90
40600;DHT22;26309;50.924;4.754;2024-03-08T05:19:02;3.90;99.90
40600;DHT22;26309;50.924;4.754;2024-03-08T05:21:28;3.80;99.90
40600;DHT22;26309;50.924;4.754;2024-03-08T05:23:54;3.90;99.90
40600;DHT22;26309;50.924;4.754;2024-03-08T05:26:20;3.80;99.90
40600;DHT22;26309;50.924;4.754;2024-03-08T05:28:48;3.90;99.90
40600;DHT22;26309;50.924;4.754;2024-03-08T05:31:21;3.80;99.90
40600;DHT22;26309;50.924;4.754;2024-03-08T05:33:50;3.80;99.90
40600;DHT22;26309;50.924;4.754;2024-03-08T05:36:16;3.80;99.90
40600;DHT22;26309;50.924;4.754;2024-03-08T05:38:45;3.80;99.90
40600;DHT22;26309;50.924;4.754;2024-03-08T05:41:11;3.80;99.90
40600;DHT22;26309;50.924;4.754;2024-03-08T05:43:40;3.70;99.90
40600;DHT22;26309;50.924;4.754;2024-03-08T05:46:07;3.80;99.90
40600;DHT22;26309;50.924;4.754;2024-03-08T05:48:33;3.70;99.90
40600;DHT22;26309;50.924;4.754;2024-03-08T05:51:02;3.70;99.90
40600;DHT22;26309;50.924;4.754;2024-03-08T05:53:28;3.70;99.90
40600;DHT22;26309;50.924;4.754;2024-03-08T05:55:57;3.60;99.90
40600;DHT22;26309;50.924;4.754;2024-03-08T05:58:24;3.60;99.90
40600;DHT22;26309;50.924;4.754;2024-03-08T06:00:50;3.60;99.90
40600;DHT22;26309;50.924;4.754;2024-03-08T06:03:18;3.60;99.90
40600;DHT22;26309;50.924;4.754;2024-03-08T06:05:48;3.70;99.90
40600;DHT22;26309;50.924;4.754;2024-03-08T06:08:15;3.60;99.90
40600;DHT22;26309;50.924;4.754;2024-03-08T06:10:41;3.60;99.90
40600;DHT22;26309;50.924;4.754;2024-03-08T06:13:07;3.70;99.90
40600;DHT22;26309;50.924;4.754;2024-03-08T06:15:33;4.30;99.90
40600;DHT22;26309;50.924;4.754;2024-03-08T06:18:00;4.50;99.90
40600;DHT22;26309;50.924;4.754;2024-03-08T06:20:26;4.30;99.90
40600;DHT22;26309;50.924;4.754;2024-03-08T06:22:52;4.20;99.90
40600;DHT22;26309;50.924;4.754;2024-03-08T06:25:18;4.10;99.90
40600;DHT22;26309;50.924;4.754;2024-03-08T06:27:44;4.00;99.90
40600;DHT22;26309;50.924;4.754;2024-03-08T06:30:11;4.00;99.90
40600;DHT22;26309;50.924;4.754;2024-03-08T06:32:37;3.90;99.90
40600;DHT22;26309;50.924;4.754;2024-03-08T06:35:06;3.80;99.90
40600;DHT22;26309;50.924;4.754;2024-03-08T06:37:33;3.90;99.90
40600;DHT22;26309;50.924;4.754;2024-03-08T06:40:00;3.90;99.90
40600;DHT22;26309;50.924;4.754;2024-03-08T06:42:30;3.90;99.90
40600;DHT22;26309;50.924;4.754;2024-03-08T06:45:01;3.90;99.90
40600;DHT22;26309;50.924;4.754;2024-03-08T06:47:31;3.90;99.90
40600;DHT22;26309;50.924;4.754;2024-03-08T06:50:00;3.80;99.90
40600;DHT22;26309;50.924;4.754;2024-03-08T06:52:25;3.90;99.90
40600;DHT22;26309;50.924;4.754;2024-03-08T06:54:51;3.90;99.90
40600;DHT22;26309;50.924;4.754;2024-03-08T06:57:18;4.00;99.90
40600;DHT22;26309;50.924;4.754;2024-03-08T06:59:47;4.00;99.90
40600;DHT22;26309;50.924;4.754;2024-03-08T07:02:13;4.10;99.90
40600;DHT22;26309;50.924;4.754;2024-03-08T07:04:39;4.10;99.90
40600;DHT22;26309;50.924;4.754;2024-03-08T07:07:05;4.20;99.90
40600;DHT22;26309;50.924;4.754;2024-03-08T07:09:35;4.30;99.90
40600;DHT22;26309;50.924;4.754;2024-03-08T07:12:02;4.30;99.90
40600;DHT22;26309;50.924;4.754;2024-03-08T07:14:27;4.50;99.90
40600;DHT22;26309;50.924;4.754;2024-03-08T07:16:54;4.40;99.90
40600;DHT22;26309;50.924;4.754;2024-03-08T07:19:20;4.50;99.90
40600;DHT22;26309;50.924;4.754;2024-03-08T07:21:47;4.50;99.90
40600;DHT22;26309;50.924;4.754;2024-03-08T07:24:13;4.60;99.90
40600;DHT22;26309;50.924;4.754;2024-03-08T07:26:42;4.70;99.90
40600;DHT22;26309;50.924;4.754;2024-03-08T07:29:09;4.80;99.90
40600;DHT22;26309;50.924;4.754;2024-03-08T07:31:35;4.80;99.90
40600;DHT22;26309;50.924;4.754;2024-03-08T07:34:16;4.80;99.90
40600;DHT22;26309;50.924;4.754;2024-03-08T07:36:42;4.90;99.90
40600;DHT22;26309;50.924;4.754;2024-03-08T07:39:08;5.00;99.90
40600;DHT22;26309;50.924;4.754;2024-03-08T07:41:38;5.10;99.90
40600;DHT22;26309;50.924;4.754;2024-03-08T07:44:08;5.20;99.90
40600;DHT22;26309;50.924;4.754;2024-03-08T07:46:34;5.30;99.90
40600;DHT22;26309;50.924;4.754;2024-03-08T07:49:00;5.40;99.90
40600;DHT22;26309;50.924;4.754;2024-03-08T07:51:26;5.40;99.90
40600;DHT22;26309;50.924;4.754;2024-03-08T07:53:52;5.40;99.90
40600;DHT22;26309;50.924;4.754;2024-03-08T07:56:18;5.60;99.90
40600;DHT22;26309;50.924;4.754;2024-03-08T07:58:45;5.50;99.90
40600;DHT22;26309;50.924;4.754;2024-03-08T08:01:20;5.60;99.90
40600;DHT22;26309;50.924;4.754;2024-03-08T08:03:46;5.70;99.90
40600;DHT22;26309;50.924;4.754;2024-03-08T08:06:15;5.80;99.90
40600;DHT22;26309;50.924;4.754;2024-03-08T08:08:42;5.80;99.90
40600;DHT22;26309;50.924;4.754;2024-03-08T08:11:10;6.00;99.90
40600;DHT22;26309;50.924;4.754;2024-03-08T08:13:41;6.10;99.90
40600;DHT22;26309;50.924;4.754;2024-03-08T08:16:07;6.30;99.90
40600;DHT22;26309;50.924;4.754;2024-03-08T08:18:33;6.40;99.90
40600;DHT22;26309;50.924;4.754;2024-03-08T08:21:00;6.40;99.90
40600;DHT22;26309;50.924;4.754;2024-03-08T08:23:27;6.50;99.90
40600;DHT22;26309;50.924;4.754;2024-03-08T08:25:53;6.40;99.90
40600;DHT22;26309;50.924;4.754;2024-03-08T08:28:19;6.50;99.90
40600;DHT22;26309;50.924;4.754;2024-03-08T08:30:46;6.60;99.90
40600;DHT22;26309;50.924;4.754;2024-03-08T08:33:11;6.70;99.90
40600;DHT22;26309;50.924;4.754;2024-03-08T08:35:38;6.60;99.90
40600;DHT22;26309;50.924;4.754;2024-03-08T08:38:04;6.70;99.90
40600;DHT22;26309;50.924;4.754;2024-03-08T08:40:30;6.70;99.90
40600;DHT22;26309;50.924;4.754;2024-03-08T08:43:00;6.70;99.90
40600;DHT22;26309;50.924;4.754;2024-03-08T08:45:26;6.80;99.90
40600;DHT22;26309;50.924;4.754;2024-03-08T08:47:52;6.80;99.90
40600;DHT22;26309;50.924;4.754;2024-03-08T08:50:18;6.90;99.90
40600;DHT22;26309;50.924;4.754;2024-03-08T08:52:49;6.90;99.90
40600;DHT22;26309;50.924;4.754;2024-03-08T08:55:15;7.00;99.90
40600;DHT22;26309;50.924;4.754;2024-03-08T08:57:41;7.10;99.90
40600;DHT22;26309;50.924;4.754;2024-03-08T09:00:08;7.20;99.90
40600;DHT22;26309;50.924;4.754;2024-03-08T09:02:36;7.30;99.90
40600;DHT22;26309;50.924;4.754;2024-03-08T09:05:03;7.40;99.90
40600;DHT22;26309;50.924;4.754;2024-03-08T09:07:29;7.60;99.90
40600;DHT22;26309;50.924;4.754;2024-03-08T09:09:55;7.70;99.90
40600;DHT22;26309;50.924;4.754;2024-03-08T09:12:24;7.80;99.90
40600;DHT22;26309;50.924;4.754;2024-03-08T09:14:50;7.80;99.90
40600;DHT22;26309;50.924;4.754;2024-03-08T09:17:16;7.80;99.90
40600;DHT22;26309;50.924;4.754;2024-03-08T09:19:49;7.80;99.90
40600;DHT22;26309;50.924;4.754;2024-03-08T09:22:15;7.90;99.90
40600;DHT22;26309;50.924;4.754;2024-03-08T09:24:41;7.70;99.90
40600;DHT22;26309;50.924;4.754;2024-03-08T09:27:08;7.80;99.90
40600;DHT22;26309;50.924;4.754;2024-03-08T09:29:35;8.00;99.90
40600;DHT22;26309;50.924;4.754;2024-03-08T09:32:02;8.00;99.90
40600;DHT22;26309;50.924;4.754;2024-03-08T09:34:28;8.00;99.90
40600;DHT22;26309;50.924;4.754;2024-03-08T09:36:54;8.00;99.90
40600;DHT22;26309;50.924;4.754;2024-03-08T09:39:20;8.00;99.90
40600;DHT22;26309;50.924;4.754;2024-03-08T09:41:49;8.00;99.90
40600;DHT22;26309;50.924;4.754;2024-03-08T09:44:16;8.10;99.90
40600;DHT22;26309;50.924;4.754;2024-03-08T09:46:42;8.30;99.90
40600;DHT22;26309;50.924;4.754;2024-03-08T09:49:09;8.30;99.90
40600;DHT22;26309;50.924;4.754;2024-03-08T09:51:38;8.40;99.90
40600;DHT22;26309;50.924;4.754;2024-03-08T09:54:07;8.50;99.90
40600;DHT22;26309;50.924;4.754;2024-03-08T09:56:35;8.50;99.90
40600;DHT22;26309;50.924;4.754;2024-03-08T09:59:01;8.40;99.90
40600;DHT22;26309;50.924;4.754;2024-03-08T10:01:46;8.50;99.90
40600;DHT22;26309;50.924;4.754;2024-03-08T10:04:12;8.40;99.90
40600;DHT22;26309;50.924;4.754;2024-03-08T10:06:40;8.50;99.90
40600;DHT22;26309;50.924;4.754;2024-03-08T10:09:06;8.60;99.90
40600;DHT22;26309;50.924;4.754;2024-03-08T10:11:34;8.80;99.90
40600;DHT22;26309;50.924;4.754;2024-03-08T10:14:00;9.00;99.90
40600;DHT22;26309;50.924;4.754;2024-03-08T10:16:30;9.00;99.90
40600;DHT22;26309;50.924;4.754;2024-03-08T10:18:59;9.10;99.90
40600;DHT22;26309;50.924;4.754;2024-03-08T10:21:26;8.90;99.90
40600;DHT22;26309;50.924;4.754;2024-03-08T10:23:52;8.90;99.90
40600;DHT22;26309;50.924;4.754;2024-03-08T10:26:19;9.00;99.90
40600;DHT22;26309;50.924;4.754;2024-03-08T10:28:52;9.10;99.90
40600;DHT22;26309;50.924;4.754;2024-03-08T10:31:19;9.10;99.90
40600;DHT22;26309;50.924;4.754;2024-03-08T10:33:46;9.00;99.90
40600;DHT22;26309;50.924;4.754;2024-03-08T10:36:13;9.10;99.90
40600;DHT22;26309;50.924;4.754;2024-03-08T10:38:41;9.20;99.90
40600;DHT22;26309;50.924;4.754;2024-03-08T10:41:09;9.30;99.90
40600;DHT22;26309;50.924;4.754;2024-03-08T10:47:11;9.20;99.90
40600;DHT22;26309;50.924;4.754;2024-03-08T10:49:54;9.40;99.90
40600;DHT22;26309;50.924;4.754;2024-03-08T10:52:21;9.50;99.90
40600;DHT22;26309;50.924;4.754;2024-03-08T10:54:48;9.70;99.90
40600;DHT22;26309;50.924;4.754;2024-03-08T10:57:18;9.70;99.90
40600;DHT22;26309;50.924;4.754;2024-03-08T10:59:49;9.70;99.90
40600;DHT22;26309;50.924;4.754;2024-03-08T11:02:17;9.60;99.90
40600;DHT22;26309;50.924;4.754;2024-03-08T11:04:47;9.70;99.90
40600;DHT22;26309;50.924;4.754;2024-03-08T11:07:15;9.70;99.90
40600;DHT22;26309;50.924;4.754;2024-03-08T11:09:43;9.70;99.90
40600;DHT22;26309;50.924;4.754;2024-03-08T11:12:24;9.80;99.90
40600;DHT22;26309;50.924;4.754;2024-03-08T11:15:02;9.90;99.90
40600;DHT22;26309;50.924;4.754;2024-03-08T11:19:58;9.90;99.90
40600;DHT22;26309;50.924;4.754;2024-03-08T11:22:32;9.80;99.90
40600;DHT22;26309;50.924;4.754;2024-03-08T11:25:04;9.80;99.90
40600;DHT22;26309;50.924;4.754;2024-03-08T11:27:35;9.90;99.90
40600;DHT22;26309;50.924;4.754;2024-03-08T11:30:06;9.90;99.90
40600;DHT22;26309;50.924;4.754;2024-03-08T11:32:37;10.00;99.90
40600;DHT22;26309;50.924;4.754;2024-03-08T11:35:07;10.10;99.90
40600;DHT22;26309;50.924;4.754;2024-03-08T11:37:35;10.10;99.90
40600;DHT22;26309;50.924;4.754;2024-03-08T11:40:01;10.30;99.90
40600;DHT22;26309;50.924;4.754;2024-03-08T11:42:30;10.40;99.90
40600;DHT22;26309;50.924;4.754;2024-03-08T11:44:56;10.50;99.90
40600;DHT22;26309;50.924;4.754;2024-03-08T11:47:23;10.60;99.90
40600;DHT22;26309;50.924;4.754;2024-03-08T11:49:54;10.70;99.90
40600;DHT22;26309;50.924;4.754;2024-03-08T11:52:20;10.70;99.90
40600;DHT22;26309;50.924;4.754;2024-03-08T11:54:53;10.80;99.90
40600;DHT22;26309;50.924;4.754;2024-03-08T11:57:23;10.80;99.90
40600;DHT22;26309;50.924;4.754;2024-03-08T11:59:56;10.80;99.90
40600;DHT22;26309;50.924;4.754;2024-03-08T12:02:34;10.80;99.90
40600;DHT22;26309;50.924;4.754;2024-03-08T12:05:08;10.90;99.90
40600;DHT22;26309;50.924;4.754;2024-03-08T12:07:42;11.00;99.90
40600;DHT22;26309;50.924;4.754;2024-03-08T12:10:20;11.10;99.90
40600;DHT22;26309;50.924;4.754;2024-03-08T12:12:48;11.10;99.90
40600;DHT22;26309;50.924;4.754;2024-03-08T12:15:16;11.20;99.90
40600;DHT22;26309;50.924;4.754;2024-03-08T12:17:44;11.10;99.90
40600;DHT22;26309;50.924;4.754;2024-03-08T12:20:27;11.10;99.90
40600;DHT22;26309;50.924;4.754;2024-03-08T12:22:56;11.10;99.90
40600;DHT22;26309;50.924;4.754;2024-03-08T12:25:34;11.20;99.90
40600;DHT22;26309;50.924;4.754;2024-03-08T12:28:10;11.30;99.90
40600;DHT22;26309;50.924;4.754;2024-03-08T12:30:50;11.30;99.90
40600;DHT22;26309;50.924;4.754;2024-03-08T12:33:18;11.30;99.90
40600;DHT22;26309;50.924;4.754;2024-03-08T12:35:53;11.50;99.90
40600;DHT22;26309;50.924;4.754;2024-03-08T12:38:21;11.50;99.90
40600;DHT22;26309;50.924;4.754;2024-03-08T12:40:51;11.60;99.90
40600;DHT22;26309;50.924;4.754;2024-03-08T12:43:20;11.50;99.90
40600;DHT22;26309;50.924;4.754;2024-03-08T12:45:46;11.60;99.90
40600;DHT22;26309;50.924;4.754;2024-03-08T12:48:15;11.60;99.90
40600;DHT22;26309;50.924;4.754;2024-03-08T12:50:41;11.80;99.90
40600;DHT22;26309;50.924;4.754;2024-03-08T12:53:14;11.90;99.90
40600;DHT22;26309;50.924;4.754;2024-03-08T12:55:41;11.80;99.90
40600;DHT22;26309;50.924;4.754;2024-03-08T12:58:06;11.80;99.90
40600;DHT22;26309;50.924;4.754;2024-03-08T13:00:35;11.70;99.90
40600;DHT22;26309;50.924;4.754;2024-03-08T13:03:02;11.80;99.90
40600;DHT22;26309;50.924;4.754;2024-03-08T13:05:29;11.70;99.90
40600;DHT22;26309;50.924;4.754;2024-03-08T13:07:55;11.80;99.90
40600;DHT22;26309;50.924;4.754;2024-03-08T13:10:22;11.80;99.90
40600;DHT22;26309;50.924;4.754;2024-03-08T13:12:48;11.80;99.90
40600;DHT22;26309;50.924;4.754;2024-03-08T13:15:14;11.90;99.90
40600;DHT22;26309;50.924;4.754;2024-03-08T13:17:47;12.00;99.90
40600;DHT22;26309;50.924;4.754;2024-03-08T13:20:13;12.10;99.90
40600;DHT22;26309;50.924;4.754;2024-03-08T13:22:45;12.20;99.90
40600;DHT22;26309;50.924;4.754;2024-03-08T13:25:12;12.20;99.90
40600;DHT22;26309;50.924;4.754;2024-03-08T13:27:40;12.30;99.90
40600;DHT22;26309;50.924;4.754;2024-03-08T13:30:08;12.40;99.90
40600;DHT22;26309;50.924;4.754;2024-03-08T13:32:39;12.40;99.90
40600;DHT22;26309;50.924;4.754;2024-03-08T13:35:06;12.40;99.90
40600;DHT22;26309;50.924;4.754;2024-03-08T13:37:41;12.40;99.90
40600;DHT22;26309;50.924;4.754;2024-03-08T13:40:08;12.40;99.90
40600;DHT22;26309;50.924;4.754;2024-03-08T13:42:41;12.30;99.90
40600;DHT22;26309;50.924;4.754;2024-03-08T13:45:08;12.40;99.90
40600;DHT22;26309;50.924;4.754;2024-03-08T13:47:38;12.40;99.90
40600;DHT22;26309;50.924;4.754;2024-03-08T13:50:09;12.40;99.90
40600;DHT22;26309;50.924;4.754;2024-03-08T13:52:38;12.50;99.90
40600;DHT22;26309;50.924;4.754;2024-03-08T13:55:08;12.60;99.90
40600;DHT22;26309;50.924;4.754;2024-03-08T13:57:34;12.70;99.90
40600;DHT22;26309;50.924;4.754;2024-03-08T14:00:00;12.70;99.90
40600;DHT22;26309;50.924;4.754;2024-03-08T14:02:26;12.70;99.90
40600;DHT22;26309;50.924;4.754;2024-03-08T14:04:57;12.70;99.90
40600;DHT22;26309;50.924;4.754;2024-03-08T14:07:23;12.80;99.90
40600;DHT22;26309;50.924;4.754;2024-03-08T14:09:49;12.70;99.90
40600;DHT22;26309;50.924;4.754;2024-03-08T14:12:19;12.70;99.90
40600;DHT22;26309;50.924;4.754;2024-03-08T14:14:45;12.90;99.90
40600;DHT22;26309;50.924;4.754;2024-03-08T14:17:11;12.80;99.50
40600;DHT22;26309;50.924;4.754;2024-03-08T14:19:54;12.70;99.80
40600;DHT22;26309;50.924;4.754;2024-03-08T14:22:20;12.80;99.90
40600;DHT22;26309;50.924;4.754;2024-03-08T14:24:46;12.80;99.50
40600;DHT22;26309;50.924;4.754;2024-03-08T14:27:12;12.60;99.90
40600;DHT22;26309;50.924;4.754;2024-03-08T14:29:40;12.50;99.90
40600;DHT22;26309;50.924;4.754;2024-03-08T14:32:06;12.50;99.90
40600;DHT22;26309;50.924;4.754;2024-03-08T14:34:33;12.60;99.50
40600;DHT22;26309;50.924;4.754;2024-03-08T14:37:00;12.80;99.90
40600;DHT22;26309;50.924;4.754;2024-03-08T14:39:26;12.80;99.40
40600;DHT22;26309;50.924;4.754;2024-03-08T14:41:55;12.80;99.60
40600;DHT22;26309;50.924;4.754;2024-03-08T14:44:26;12.90;99.70
40600;DHT22;26309;50.924;4.754;2024-03-08T14:46:52;13.00;99.90
40600;DHT22;26309;50.924;4.754;2024-03-08T14:49:21;13.10;99.20
40600;DHT22;26309;50.924;4.754;2024-03-08T14:51:47;13.00;99.00
40600;DHT22;26309;50.924;4.754;2024-03-08T14:54:13;13.00;99.00
40600;DHT22;26309;50.924;4.754;2024-03-08T14:56:39;13.00;99.90
40600;DHT22;26309;50.924;4.754;2024-03-08T14:59:07;13.50;99.80
40600;DHT22;26309;50.924;4.754;2024-03-08T15:01:34;13.60;98.00
40600;DHT22;26309;50.924;4.754;2024-03-08T15:04:02;13.50;97.40
40600;DHT22;26309;50.924;4.754;2024-03-08T15:06:38;13.50;98.40
40600;DHT22;26309;50.924;4.754;2024-03-08T15:09:04;13.50;97.80
40600;DHT22;26309;50.924;4.754;2024-03-08T15:11:46;13.20;98.00
40600;DHT22;26309;50.924;4.754;2024-03-08T15:14:15;13.40;97.90
40600;DHT22;26309;50.924;4.754;2024-03-08T15:16:46;13.60;98.20
40600;DHT22;26309;50.924;4.754;2024-03-08T15:19:13;13.60;97.30
40600;DHT22;26309;50.924;4.754;2024-03-08T15:21:41;13.70;97.90
40600;DHT22;26309;50.924;4.754;2024-03-08T15:24:09;13.70;96.90
40600;DHT22;26309;50.924;4.754;2024-03-08T15:26:41;13.70;97.80
40600;DHT22;26309;50.924;4.754;2024-03-08T15:29:08;13.60;96.90
40600;DHT22;26309;50.924;4.754;2024-03-08T15:31:35;13.50;98.00
40600;DHT22;26309;50.924;4.754;2024-03-08T15:34:01;13.50;97.50
40600;DHT22;26309;50.924;4.754;2024-03-08T15:36:31;13.20;97.60
40600;DHT22;26309;50.924;4.754;2024-03-08T15:38:59;13.00;98.40
40600;DHT22;26309;50.924;4.754;2024-03-08T15:41:26;13.10;98.70
40600;DHT22;26309;50.924;4.754;2024-03-08T15:43:52;13.10;98.40
40600;DHT22;26309;50.924;4.754;2024-03-08T15:46:20;13.00;97.90
40600;DHT22;26309;50.924;4.754;2024-03-08T15:48:48;12.90;98.30
40600;DHT22;26309;50.924;4.754;2024-03-08T15:51:15;12.90;99.30